Coinjock, NC (27923)

12:23 AM EST on February 14, 2016 (GMT -0500)
Currituck | | Change Station
CLOSE
Current Station
Airport
Location: Currituck,
Elevation: 16 ft
Nearby Weather Stations

Elev 16 ft 36.40 °N, 76.02 °W | Updated 13 minutes ago

Clear
Clear
22 °F
Feels Like 11 °F
N
10
Wind Variable Wind from NNW
Gusts 20 mph

Today
High -- | Low -- °F
--% Chance of Precip.
Yesterday
High -- | Low -- °F
Precip. -- in
Pressure 30.45 in
Visibility 10.0 miles
Clouds Clear
Windchill 11 °F
Dew Point 1 °F
Humidity 40%
Rainfall 0.00 in
Snow Depth Not available.
6:53 AM 5:43 PM
Waxing Crescent, 38% visible
METAR KONX 140510Z AUTO 33009G17KT 10SM CLR M06/M17 A3045 RMK AO2 T10561174
Pressure 30.45 in
Visibility 10.0 miles
Clouds Clear
Windchill 11 °F
Dew Point 1 °F
Humidity 40%
Rainfall 0.00 in
Snow Depth Not available.
6:53 AM 5:43 PM
Waxing Crescent, 38% visible
METAR KONX 140510Z AUTO 33009G17KT 10SM CLR M06/M17 A3045 RMK AO2 T10561174

10-Day Weather Forecast

Almanac

Astronomy

Feb. 14, 2016 Rise Set
Actual Time
Civil Twilight
Nautical Twilight
Astronomical Twilight
Moon
Length of Visible Light
Length of Day
Tomorrow will be .
, % of the Moon is Illuminated

Today's Extremes

State Highs State Lows

Community

WunderPhotos

Upload Photos

1,892,748 photos uploaded!

WunderBlog® & News

Nearby

Air Quality

  Air Quality AQ Index Pollutant
Not available.

Snow Depth

Station Depth Elevation

Earthquake Activity

City Distance Mag. Time & Date
Minimum magnitude displayed is 2.5.

Coastal Water Temperatures

Place Temperature

Stations

Nearby Weather Stations

Station Location Temp. Windchill Dew Point Humidity Wind Precip. Elev Updated Type
                   

Watches & Warnings

There are currently no watches in effect.